createdAt,value
2023-02-02T08:53:20.280Z,55.20
2023-02-02T09:08:25.462Z,56.00
2023-02-02T09:23:30.907Z,55.40
2023-02-02T09:38:35.722Z,54.40
2023-02-02T09:53:55.296Z,52.80
2023-02-02T10:09:07.280Z,51.70
2023-02-02T10:24:16.983Z,51.20
2023-02-02T10:39:33.146Z,52.70
2023-02-02T10:54:58.203Z,50.60
2023-02-02T11:10:03.395Z,50.20
2023-02-02T11:25:22.984Z,49.90
2023-02-02T11:40:34.205Z,49.60
2023-02-02T11:55:38.785Z,49.50
2023-02-02T12:10:46.955Z,49.80
2023-02-02T12:26:19.187Z,49.90
2023-02-02T12:41:37.423Z,50.10
2023-02-02T12:56:46.137Z,49.90
2023-02-02T13:11:55.888Z,49.70
2023-02-02T13:27:04.086Z,49.50
2023-02-02T13:42:16.935Z,49.20
2023-02-02T13:57:42.597Z,48.90
2023-02-02T14:12:47.335Z,48.80
2023-02-02T14:28:02.029Z,48.50
2023-02-02T14:43:35.267Z,48.30
2023-02-02T14:58:44.172Z,48.10
2023-02-02T15:13:53.889Z,48.00
2023-02-02T15:29:02.385Z,47.60
2023-02-02T15:44:19.784Z,48.20
2023-02-02T15:59:26.976Z,48.90
2023-02-02T16:14:34.183Z,49.00
2023-02-02T16:29:41.179Z,48.40
2023-02-02T16:44:45.782Z,48.00
2023-02-02T16:59:54.036Z,48.30
2023-02-02T17:15:01.613Z,48.70
2023-02-02T17:30:07.836Z,49.00
2023-02-02T17:45:18.843Z,48.80
2023-02-02T18:00:28.041Z,48.10
2023-02-02T18:15:35.172Z,47.90
2023-02-02T18:30:41.148Z,47.80
2023-02-02T18:45:45.799Z,47.60
2023-02-02T19:00:50.347Z,47.50
2023-02-02T19:15:55.440Z,47.40
2023-02-02T19:31:01.927Z,47.30
2023-02-02T19:46:17.777Z,47.30
